Time;durP1;ratioP1;P1;durP2;ratioP2;P2;SDS_P1;SDS_P2;PMS_P1;PMS_P2;Temp;Humidity;BMP_temperature;BMP_pressure;BME280_temperature;BME280_humidity;BME280_pressure;Samples;Min_cycle;Max_cycle;Signal;HPM_P1;HPM_P2
2022/12/10 00:02:29;;;;;;;32.20;13.17;;;;;-1.00;100279.00;;;;9730316;30;20262;-75
2022/12/10 00:07:31;;;;;;;34.80;13.57;;;;;-1.00;100284.00;;;;9776368;30;20217;-75
2022/12/10 00:12:33;;;;;;;36.37;15.10;;;;;-1.00;100284.00;;;;9751138;30;20221;-75
2022/12/10 00:17:35;;;;;;;41.40;15.40;;;;;-0.90;100286.00;;;;9779549;30;20201;-75
2022/12/10 00:22:37;;;;;;;43.37;15.70;;;;;-1.00;100283.00;;;;9765530;30;20650;-75
2022/12/10 00:27:39;;;;;;;38.60;15.77;;;;;-0.90;100278.00;;;;9764520;30;20233;-75
2022/12/10 00:32:41;;;;;;;44.80;16.80;;;;;-0.90;100281.00;;;;9764917;30;20222;-75
2022/12/10 00:37:42;;;;;;;42.67;16.47;;;;;-0.90;100271.00;;;;9779346;30;20881;-75
2022/12/10 00:42:44;;;;;;;43.07;15.17;;;;;-1.00;100282.00;;;;9735870;30;20198;-75
2022/12/10 00:47:46;;;;;;;44.80;16.07;;;;;-0.90;100280.00;;;;9736284;30;20214;-75
2022/12/10 00:52:48;;;;;;;46.73;17.37;;;;;-1.00;100273.00;;;;9718817;30;20769;-75
2022/12/10 00:57:50;;;;;;;44.23;16.70;;;;;-1.00;100277.00;;;;9742865;30;20261;-75
2022/12/10 01:02:53;;;;;;;44.53;16.97;;;;;-0.90;100273.00;;;;9742746;30;20319;-75
2022/12/10 01:07:55;;;;;;;46.07;16.23;;;;;-0.90;100295.00;;;;9740942;30;20492;-75
2022/12/10 01:12:57;;;;;;;52.67;17.60;;;;;-0.90;100304.00;;;;9751574;30;20308;-75
2022/12/10 01:17:59;;;;;;;50.30;17.37;;;;;-0.80;100298.00;;;;9742492;30;20671;-75
2022/12/10 01:23:01;;;;;;;42.73;17.47;;;;;-0.80;100289.00;;;;9742391;30;20198;-75
2022/12/10 01:28:02;;;;;;;47.77;18.73;;;;;-0.90;100291.00;;;;9756278;30;20332;-75
2022/12/10 01:33:04;;;;;;;44.93;16.60;;;;;-0.90;100294.00;;;;9778313;30;20214;-75
2022/12/10 01:38:08;;;;;;;55.87;15.43;;;;;-1.00;100293.00;;;;9790186;30;20292;-75
2022/12/10 01:43:14;;;;;;;50.13;16.87;;;;;-1.00;100299.00;;;;9762977;30;20227;-75
2022/12/10 01:48:16;;;;;;;40.37;16.67;;;;;-1.00;100319.00;;;;9763209;30;20668;-75
2022/12/10 01:53:18;;;;;;;50.23;18.80;;;;;-1.00;100311.00;;;;9748196;30;20222;-75
2022/12/10 01:58:20;;;;;;;43.83;17.07;;;;;-1.00;100310.00;;;;9742936;30;20207;-75
2022/12/10 02:03:35;;;;;;;54.17;19.03;;;;;-1.00;100316.00;;;;9735014;30;20210;-75
2022/12/10 02:09:00;;;;;;;46.47;15.97;;;;;-1.00;100324.00;;;;9762507;30;20189;-75
2022/12/10 02:14:09;;;;;;;52.93;14.97;;;;;-1.00;100322.00;;;;9775695;30;20629;-75
2022/12/10 02:19:26;;;;;;;49.43;17.67;;;;;-1.00;100335.00;;;;9747308;30;20263;-75
2022/12/10 02:24:33;;;;;;;46.53;16.33;;;;;-1.00;100324.00;;;;9775062;30;20240;-75
2022/12/10 02:29:37;;;;;;;45.40;16.63;;;;;-1.00;100325.00;;;;9746051;30;20241;-75
2022/12/10 02:34:47;;;;;;;51.23;17.27;;;;;-1.00;100315.00;;;;9738753;30;20254;-75
2022/12/10 02:39:55;;;;;;;46.03;15.63;;;;;-1.00;100341.00;;;;9761043;30;20205;-75
2022/12/10 02:44:57;;;;;;;42.57;15.27;;;;;-1.10;100325.00;;;;9761787;30;20217;-75
2022/12/10 02:50:01;;;;;;;42.03;15.37;;;;;-1.10;100324.00;;;;9761450;30;20213;-75
2022/12/10 02:55:03;;;;;;;42.63;16.17;;;;;-1.10;100323.00;;;;9746007;30;20224;-75
2022/12/10 03:00:19;;;;;;;42.67;16.00;;;;;-1.10;100324.00;;;;9761001;30;20212;-75
2022/12/10 03:06:04;;;;;;;47.23;16.47;;;;;-1.10;100326.00;;;;9746267;30;20268;-75
2022/12/10 03:11:15;;;;;;;42.73;16.53;;;;;-1.10;100321.00;;;;9761417;30;20202;-74
2022/12/10 03:16:19;;;;;;;47.83;15.50;;;;;-1.10;100325.00;;;;9760883;30;20222;-75
2022/12/10 03:21:24;;;;;;;40.50;15.93;;;;;-1.10;100331.00;;;;9736378;30;20272;-75
2022/12/10 03:26:27;;;;;;;52.97;17.60;;;;;-1.00;100330.00;;;;9715976;30;20210;-75
2022/12/10 03:31:31;;;;;;;56.93;18.73;;;;;-1.00;100334.00;;;;9723705;30;20308;-75
2022/12/10 03:36:33;;;;;;;51.63;18.70;;;;;-1.00;100335.00;;;;9740982;30;20717;-75
2022/12/10 03:41:35;;;;;;;53.97;16.77;;;;;-1.00;100325.00;;;;9744088;30;20206;-75
2022/12/10 03:46:37;;;;;;;47.37;17.37;;;;;-1.00;100330.00;;;;9724256;30;20206;-74
2022/12/10 03:51:39;;;;;;;51.40;18.07;;;;;-1.00;100343.00;;;;9758462;30;20218;-75
2022/12/10 03:56:41;;;;;;;62.50;19.90;;;;;-0.90;100339.00;;;;9752358;30;20206;-75
2022/12/10 04:01:42;;;;;;;59.37;21.07;;;;;-0.90;100325.00;;;;9752473;30;20202;-75
2022/12/10 04:06:44;;;;;;;61.47;20.10;;;;;-0.90;100319.00;;;;9784278;30;20237;-74
2022/12/10 04:11:46;;;;;;;57.13;20.87;;;;;-0.90;100331.00;;;;9744970;30;20770;-74
2022/12/10 04:16:49;;;;;;;61.53;21.17;;;;;-1.00;100319.00;;;;9729989;30;20642;-75
2022/12/10 04:27:19;;;;;;;61.73;22.80;;;;;-1.00;100340.00;;;;9729882;30;20225;-74
2022/12/10 04:32:23;;;;;;;50.10;19.93;;;;;-0.90;100335.00;;;;9744128;30;20222;-74
2022/12/10 04:37:27;;;;;;;63.80;22.73;;;;;-0.90;100345.00;;;;9753411;30;20690;-75
2022/12/10 04:42:28;;;;;;;60.20;22.70;;;;;-0.90;100354.00;;;;9715447;30;20210;-74
2022/12/10 04:47:30;;;;;;;66.83;22.90;;;;;-0.90;100355.00;;;;9733382;30;20281;-74
2022/12/10 04:52:32;;;;;;;61.80;21.97;;;;;-0.90;100354.00;;;;9725506;30;20225;-74
2022/12/10 04:57:34;;;;;;;63.97;21.97;;;;;-0.90;100350.00;;;;9750725;30;20202;-74
2022/12/10 05:02:36;;;;;;;67.90;22.70;;;;;-1.00;100343.00;;;;9764112;30;20535;-74
2022/12/10 05:07:38;;;;;;;58.73;21.73;;;;;-1.00;100342.00;;;;9761148;30;20296;-74
2022/12/10 05:12:40;;;;;;;70.40;22.23;;;;;-1.00;100348.00;;;;9742346;30;20226;-74
2022/12/10 05:17:41;;;;;;;57.70;22.20;;;;;-1.00;100350.00;;;;9741335;30;20206;-74
2022/12/10 05:28:04;;;;;;;64.73;22.47;;;;;-0.90;100366.00;;;;9759974;30;20225;-74
2022/12/10 05:33:06;;;;;;;56.03;21.03;;;;;-1.00;100357.00;;;;9751465;30;20213;-74
2022/12/10 05:38:08;;;;;;;70.97;22.03;;;;;-0.90;100352.00;;;;9777886;30;20293;-75
2022/12/10 05:43:10;;;;;;;73.67;22.40;;;;;-1.00;100357.00;;;;9738167;30;20201;-74
2022/12/10 05:48:15;;;;;;;71.47;22.43;;;;;-1.00;100350.00;;;;9742666;30;20721;-75
2022/12/10 05:53:17;;;;;;;69.47;22.10;;;;;-1.00;100358.00;;;;9777428;30;20213;-74
2022/12/10 05:58:19;;;;;;;67.97;20.50;;;;;-1.00;100354.00;;;;9762764;30;20194;-74
2022/12/10 06:03:21;;;;;;;53.10;16.70;;;;;-1.00;100361.00;;;;9765969;30;20261;-75
2022/12/10 06:08:23;;;;;;;70.13;22.67;;;;;-1.00;100361.00;;;;9740553;30;20657;-74
2022/12/10 06:13:25;;;;;;;80.70;21.33;;;;;-1.00;100374.00;;;;9740007;30;20560;-74
2022/12/10 06:18:27;;;;;;;62.97;20.87;;;;;-1.00;100367.00;;;;9750458;30;20598;-74
2022/12/10 06:23:29;;;;;;;54.53;18.40;;;;;-1.00;100373.00;;;;9726660;30;20618;-74
2022/12/10 06:28:31;;;;;;;57.80;16.83;;;;;-1.00;100374.00;;;;9738852;30;20827;-74
2022/12/10 06:33:33;;;;;;;72.60;19.90;;;;;-1.00;100381.00;;;;9765608;30;20217;-74
2022/12/10 06:38:36;;;;;;;65.53;19.10;;;;;-1.00;100372.00;;;;9776124;30;20236;-74
2022/12/10 06:43:38;;;;;;;72.80;20.80;;;;;-1.00;100376.00;;;;9735987;30;20293;-74
2022/12/10 06:48:41;;;;;;;73.00;21.63;;;;;-0.80;100385.00;;;;9725292;30;20221;-74
2022/12/10 06:53:44;;;;;;;64.40;20.70;;;;;-0.70;100381.00;;;;9747966;30;20225;-74
2022/12/10 06:58:46;;;;;;;64.87;20.27;;;;;-0.70;100383.00;;;;9720566;30;20623;-74
2022/12/10 07:03:50;;;;;;;62.73;19.57;;;;;-0.70;100383.00;;;;9775317;30;20221;-74
2022/12/10 07:08:52;;;;;;;68.37;20.23;;;;;-0.80;100393.00;;;;9761217;30;20566;-74
2022/12/10 07:13:54;;;;;;;65.30;19.60;;;;;-0.80;100394.00;;;;9775408;30;20253;-74
2022/12/10 07:18:58;;;;;;;60.83;17.87;;;;;-0.70;100392.00;;;;9731520;30;20205;-75
2022/12/10 07:24:06;;;;;;;62.20;16.60;;;;;-0.70;100397.00;;;;9740531;30;20202;-74
2022/12/10 07:29:17;;;;;;;45.17;14.50;;;;;-0.80;100407.00;;;;9770695;30;20293;-74
2022/12/10 07:34:19;;;;;;;52.30;15.70;;;;;-0.90;100428.00;;;;9756003;30;20241;-74
2022/12/10 07:39:21;;;;;;;43.17;14.17;;;;;-0.90;100445.00;;;;9767599;30;20197;-74
2022/12/10 07:44:25;;;;;;;45.03;15.20;;;;;-1.00;100422.00;;;;9731452;30;20575;-74
2022/12/10 07:49:29;;;;;;;46.37;15.03;;;;;-1.00;100426.00;;;;9731143;30;20860;-74
2022/12/10 07:54:31;;;;;;;66.60;18.20;;;;;-1.00;100440.00;;;;9738308;30;20292;-74
2022/12/10 07:59:32;;;;;;;56.53;16.17;;;;;-1.00;100440.00;;;;9752358;30;20210;-74
2022/12/10 08:04:34;;;;;;;48.90;14.47;;;;;-0.90;100446.00;;;;9781965;30;20210;-74
2022/12/10 08:09:36;;;;;;;61.27;18.17;;;;;-0.90;100450.00;;;;9751207;30;20202;-74
2022/12/10 08:14:38;;;;;;;46.27;15.47;;;;;-0.90;100452.00;;;;9780891;30;20563;-74
2022/12/10 08:19:40;;;;;;;52.73;16.53;;;;;-0.90;100463.00;;;;9795338;30;20209;-75
2022/12/10 08:24:42;;;;;;;49.50;15.90;;;;;-0.80;100464.00;;;;9737767;30;20351;-74
2022/12/10 08:29:43;;;;;;;58.33;18.53;;;;;-0.80;100464.00;;;;9759297;30;20233;-75
2022/12/10 08:34:45;;;;;;;53.43;16.37;;;;;-0.80;100482.00;;;;9741100;30;20634;-74
2022/12/10 08:39:47;;;;;;;54.80;17.40;;;;;-0.70;100480.00;;;;9733955;30;20283;-74
2022/12/10 08:44:50;;;;;;;51.57;17.93;;;;;-0.70;100486.00;;;;9735672;30;20205;-75
2022/12/10 08:49:52;;;;;;;51.00;17.97;;;;;-0.70;100479.00;;;;9741712;30;20237;-74
2022/12/10 08:54:54;;;;;;;56.23;17.90;;;;;-0.60;100480.00;;;;9733485;30;20222;-74
2022/12/10 08:59:56;;;;;;;61.20;19.13;;;;;-0.50;100475.00;;;;9729058;30;20266;-75
2022/12/10 09:04:58;;;;;;;53.93;17.53;;;;;-0.40;100483.00;;;;9754068;30;20249;-75
2022/12/10 09:09:59;;;;;;;62.50;19.67;;;;;-0.30;100482.00;;;;9747154;30;20206;-75
2022/12/10 09:15:02;;;;;;;49.37;17.37;;;;;-0.30;100497.00;;;;9763367;30;20221;-75
2022/12/10 09:20:05;;;;;;;50.23;15.97;;;;;-0.40;100496.00;;;;9764154;30;20209;-75
2022/12/10 09:25:11;;;;;;;50.20;15.07;;;;;-0.30;100501.00;;;;9764267;30;20200;-75
2022/12/10 09:30:13;;;;;;;45.20;15.90;;;;;-0.40;100508.00;;;;9747934;30;20764;-75
2022/12/10 09:35:15;;;;;;;41.47;14.00;;;;;-0.40;100505.00;;;;9763345;30;20229;-74
2022/12/10 09:40:34;;;;;;;52.60;15.90;;;;;-0.30;100502.00;;;;9758223;30;20253;-75
2022/12/10 09:45:52;;;;;;;48.47;15.60;;;;;-0.20;100511.00;;;;9757308;30;20213;-75
2022/12/10 09:51:19;;;;;;;57.93;17.73;;;;;-0.10;100521.00;;;;9718969;30;20206;-75
2022/12/10 09:56:25;;;;;;;45.63;16.03;;;;;-0.10;100516.00;;;;9734737;30;20615;-75
2022/12/10 10:01:31;;;;;;;56.23;17.87;;;;;0.10;100519.00;;;;9744996;30;20624;-75
2022/12/10 10:06:33;;;;;;;46.03;15.90;;;;;0.30;100526.00;;;;9715878;30;20204;-75
2022/12/10 10:11:35;;;;;;;58.40;18.00;;;;;0.20;100527.00;;;;9723184;30;20578;-75
2022/12/10 10:16:52;;;;;;;50.13;16.17;;;;;0.10;100526.00;;;;9740122;30;20226;-75
2022/12/10 10:21:54;;;;;;;42.73;14.53;;;;;-0.10;100535.00;;;;9740812;30;20277;-75
2022/12/10 10:27:01;;;;;;;54.17;16.90;;;;;0.00;100522.00;;;;9736941;30;20202;-74
2022/12/10 10:32:13;;;;;;;49.37;16.30;;;;;0.20;100525.00;;;;9776282;30;20212;-75
2022/12/10 10:37:29;;;;;;;49.40;15.47;;;;;0.40;100515.00;;;;9744799;30;20202;-75
2022/12/10 10:42:38;;;;;;;49.60;17.43;;;;;0.60;100513.00;;;;9719568;30;20295;-75
2022/12/10 10:47:40;;;;;;;50.97;16.13;;;;;0.60;100528.00;;;;9740187;30;20199;-75
2022/12/10 10:52:41;;;;;;;62.90;21.03;;;;;0.70;100527.00;;;;9770233;30;20214;-75
2022/12/10 10:57:43;;;;;;;51.80;17.43;;;;;0.60;100534.00;;;;9746438;30;20574;-75
2022/12/10 11:02:45;;;;;;;60.40;19.93;;;;;0.60;100529.00;;;;9751036;30;20194;-75
2022/12/10 11:07:48;;;;;;;59.37;18.83;;;;;0.70;100526.00;;;;9783040;30;20226;-75
2022/12/10 11:13:04;;;;;;;59.50;18.90;;;;;1.20;100508.00;;;;9767592;30;20221;-75
2022/12/10 11:18:25;;;;;;;48.77;17.23;;;;;1.40;100511.00;;;;9729720;30;20218;-75
2022/12/10 11:23:29;;;;;;;58.07;19.23;;;;;1.30;100500.00;;;;9733210;30;20566;-75
2022/12/10 11:28:43;;;;;;;56.07;20.07;;;;;1.30;100494.00;;;;9779849;30;20717;-75
2022/12/10 11:34:08;;;;;;;58.23;19.13;;;;;1.30;100505.00;;;;9765021;30;20253;-75
2022/12/10 11:39:25;;;;;;;59.27;19.70;;;;;1.30;100502.00;;;;9739142;30;20210;-75
2022/12/10 11:44:43;;;;;;;53.27;18.63;;;;;1.50;100499.00;;;;9767376;30;20229;-75
2022/12/10 11:49:52;;;;;;;53.43;18.93;;;;;1.50;100505.00;;;;9744257;30;20205;-75
2022/12/10 11:55:06;;;;;;;57.90;17.93;;;;;1.60;100512.00;;;;9738635;30;20218;-75
2022/12/10 12:00:24;;;;;;;49.43;16.90;;;;;1.60;100505.00;;;;9771882;30;20558;-75
2022/12/10 12:05:53;;;;;;;55.53;18.13;;;;;1.60;100502.00;;;;9763483;30;20201;-75
2022/12/10 12:11:21;;;;;;;52.30;18.00;;;;;1.60;100507.00;;;;9773292;30;20256;-75
2022/12/10 12:16:35;;;;;;;47.60;17.03;;;;;1.60;100499.00;;;;9756168;30;20218;-75
2022/12/10 12:21:38;;;;;;;57.13;18.30;;;;;1.80;100500.00;;;;9729962;30;20265;-75
2022/12/10 12:27:09;;;;;;;53.83;18.83;;;;;1.80;100502.00;;;;9745517;30;20284;-75
2022/12/10 12:32:24;;;;;;;59.90;17.23;;;;;1.90;100496.00;;;;9742762;30;20198;-75
2022/12/10 12:37:39;;;;;;;55.13;17.97;;;;;1.80;100502.00;;;;9738078;30;20633;-75
2022/12/10 12:43:01;;;;;;;56.33;18.83;;;;;1.90;100504.00;;;;9743274;30;20284;-75
2022/12/10 12:48:14;;;;;;;50.93;17.23;;;;;1.80;100519.00;;;;9730746;30;20663;-75
2022/12/10 12:53:19;;;;;;;60.57;19.03;;;;;1.80;100514.00;;;;9741976;30;20225;-75
2022/12/10 12:58:48;;;;;;;50.10;17.73;;;;;1.80;100518.00;;;;9760735;30;20709;-76
2022/12/10 13:03:51;;;;;;;50.57;17.93;;;;;1.70;100515.00;;;;9774041;30;20212;-75
2022/12/10 13:08:58;;;;;;;49.30;16.93;;;;;1.70;100514.00;;;;9757880;30;20210;-76
2022/12/10 13:14:08;;;;;;;51.47;17.37;;;;;1.80;100515.00;;;;9760312;30;20627;-76
2022/12/10 13:19:19;;;;;;;50.80;16.57;;;;;1.80;100519.00;;;;9753105;30;20218;-75
2022/12/10 13:24:42;;;;;;;53.40;17.43;;;;;1.90;100521.00;;;;9748913;30;20199;-75
2022/12/10 13:29:59;;;;;;;49.90;15.53;;;;;2.10;100519.00;;;;9761196;30;20260;-75
2022/12/10 13:35:07;;;;;;;45.80;16.83;;;;;2.10;100532.00;;;;9767869;30;20213;-76
2022/12/10 13:40:09;;;;;;;45.97;17.17;;;;;2.00;100529.00;;;;9771255;30;20201;-76
2022/12/10 13:45:21;;;;;;;42.77;13.80;;;;;2.00;100513.00;;;;9754364;30;20811;-76
2022/12/10 13:50:29;;;;;;;39.40;13.97;;;;;2.00;100526.00;;;;9740818;30;20216;-76
2022/12/10 13:55:38;;;;;;;44.13;15.17;;;;;2.00;100526.00;;;;9746412;30;20706;-76
2022/12/10 14:01:10;;;;;;;39.23;15.37;;;;;1.80;100532.00;;;;9759278;30;20257;-76
2022/12/10 14:06:39;;;;;;;43.17;14.33;;;;;1.70;100553.00;;;;9730810;30;20670;-76
2022/12/10 14:12:01;;;;;;;38.00;14.03;;;;;1.50;100556.00;;;;9744849;30;20218;-76
2022/12/10 14:17:06;;;;;;;37.10;13.93;;;;;1.50;100568.00;;;;9762125;30;20228;-76
2022/12/10 14:22:16;;;;;;;34.37;12.60;;;;;1.50;100563.00;;;;9747921;30;20256;-76
2022/12/10 14:27:24;;;;;;;36.13;14.03;;;;;1.40;100570.00;;;;9717647;30;20211;-76
2022/12/10 14:32:33;;;;;;;37.50;13.07;;;;;1.40;100571.00;;;;9729678;30;20202;-76
2022/12/10 14:37:39;;;;;;;37.97;14.03;;;;;1.40;100574.00;;;;9734600;30;20214;-76
2022/12/10 14:42:41;;;;;;;40.47;13.43;;;;;1.30;100577.00;;;;9728022;30;20248;-76
2022/12/10 14:47:42;;;;;;;45.43;14.63;;;;;1.20;100592.00;;;;9755348;30;20205;-76
2022/12/10 14:52:52;;;;;;;36.07;14.70;;;;;1.20;100583.00;;;;9770967;30;20228;-75
2022/12/10 14:57:59;;;;;;;35.97;13.17;;;;;1.20;100590.00;;;;9758998;30;20216;-76
2022/12/10 15:03:07;;;;;;;39.47;14.47;;;;;1.20;100597.00;;;;9739113;30;20193;-76
2022/12/10 15:08:17;;;;;;;45.23;13.97;;;;;1.10;100602.00;;;;9733746;30;20244;-76
2022/12/10 15:13:42;;;;;;;46.40;14.50;;;;;1.10;100595.00;;;;9748986;30;20249;-76
2022/12/10 15:18:45;;;;;;;32.73;12.90;;;;;1.10;100591.00;;;;9725341;30;20232;-76
2022/12/10 15:23:47;;;;;;;34.03;13.20;;;;;1.10;100597.00;;;;9721546;30;20194;-76
2022/12/10 15:28:50;;;;;;;39.60;15.00;;;;;1.00;100593.00;;;;9735628;30;20234;-76
2022/12/10 15:33:53;;;;;;;33.27;12.07;;;;;1.00;100596.00;;;;9727660;30;20222;-76
2022/12/10 15:38:55;;;;;;;41.57;12.17;;;;;1.00;100592.00;;;;9740535;30;20210;-76
2022/12/10 15:44:04;;;;;;;36.90;12.50;;;;;1.00;100587.00;;;;9760463;30;20198;-76
2022/12/10 15:49:07;;;;;;;38.50;13.67;;;;;1.00;100581.00;;;;9744958;30;20201;-76
2022/12/10 15:54:32;;;;;;;37.17;12.53;;;;;1.00;100586.00;;;;9746486;30;20221;-76
2022/12/10 15:59:34;;;;;;;30.20;12.10;;;;;1.00;100590.00;;;;9750362;30;20221;-75
2022/12/10 16:04:36;;;;;;;35.73;13.43;;;;;1.00;100589.00;;;;9764677;30;20280;-76
2022/12/10 16:09:38;;;;;;;42.23;13.87;;;;;1.00;100591.00;;;;9763375;30;20559;-76
2022/12/10 16:14:50;;;;;;;33.87;12.17;;;;;1.00;100580.00;;;;9778493;30;20217;-76
2022/12/10 16:20:31;;;;;;;38.33;12.53;;;;;1.10;100593.00;;;;9794553;30;20205;-76
2022/12/10 16:25:34;;;;;;;34.90;12.67;;;;;1.00;100593.00;;;;9734393;30;20209;-76
2022/12/10 16:30:41;;;;;;;37.27;12.73;;;;;1.10;100591.00;;;;9738026;30;20234;-76
2022/12/10 16:35:50;;;;;;;42.63;14.03;;;;;1.10;100595.00;;;;9734044;30;20229;-75
2022/12/10 16:40:52;;;;;;;35.40;13.87;;;;;1.10;100597.00;;;;9763923;30;20194;-76
2022/12/10 16:45:55;;;;;;;37.50;13.37;;;;;1.10;100612.00;;;;9776294;30;20224;-76
2022/12/10 16:50:58;;;;;;;38.30;12.37;;;;;1.10;100614.00;;;;9758911;30;20213;-76
2022/12/10 16:56:13;;;;;;;37.70;14.97;;;;;1.10;100615.00;;;;9768296;30;20215;-75
2022/12/10 17:01:30;;;;;;;36.33;13.47;;;;;1.10;100605.00;;;;9753928;30;20206;-75
2022/12/10 17:06:32;;;;;;;35.57;13.17;;;;;1.00;100600.00;;;;9742157;30;20208;-76
2022/12/10 17:11:45;;;;;;;37.47;15.07;;;;;1.00;100610.00;;;;9734420;30;20237;-76
2022/12/10 17:16:47;;;;;;;36.70;14.77;;;;;1.00;100603.00;;;;9762273;30;20284;-76
2022/12/10 17:21:50;;;;;;;41.57;14.77;;;;;1.00;100614.00;;;;9747611;30;20561;-76
2022/12/10 17:26:54;;;;;;;32.53;14.50;;;;;1.00;100603.00;;;;9734766;30;20646;-77
2022/12/10 17:31:58;;;;;;;36.67;14.37;;;;;0.90;100606.00;;;;9732612;30;20256;-76
2022/12/10 17:37:00;;;;;;;46.10;16.27;;;;;0.90;100601.00;;;;9727540;30;20627;-76
2022/12/10 17:42:02;;;;;;;39.83;16.60;;;;;0.90;100610.00;;;;9744318;30;20209;-76
2022/12/10 17:47:32;;;;;;;36.43;13.63;;;;;0.90;100612.00;;;;9763316;30;20286;-76
2022/12/10 17:52:33;;;;;;;33.53;14.83;;;;;0.90;100602.00;;;;9762163;30;20225;-76
2022/12/10 17:57:35;;;;;;;32.30;14.00;;;;;0.90;100608.00;;;;9745998;30;20690;-76
2022/12/10 18:02:37;;;;;;;34.63;14.43;;;;;0.90;100608.00;;;;9751580;30;20205;-75
2022/12/10 18:07:39;;;;;;;37.73;13.70;;;;;1.00;100595.00;;;;9730335;30;20213;-77
2022/12/10 18:12:41;;;;;;;32.97;15.80;;;;;1.00;100608.00;;;;9746070;30;20245;-76
2022/12/10 18:17:45;;;;;;;39.13;15.30;;;;;1.10;100601.00;;;;9754068;30;20222;-75
2022/12/10 18:22:47;;;;;;;39.27;15.93;;;;;1.10;100610.00;;;;9759822;30;20202;-75
2022/12/10 18:27:50;;;;;;;33.00;14.50;;;;;1.10;100600.00;;;;9776790;30;20226;-75
2022/12/10 18:32:52;;;;;;;36.30;13.97;;;;;1.10;100599.00;;;;9761127;30;20193;-75
2022/12/10 18:37:54;;;;;;;30.90;16.03;;;;;1.10;100603.00;;;;9759518;30;20218;-75
2022/12/10 18:42:56;;;;;;;41.80;15.67;;;;;1.20;100595.00;;;;9761120;30;20221;-75
2022/12/10 18:47:57;;;;;;;34.57;15.73;;;;;1.20;100598.00;;;;9757685;30;20645;-75
2022/12/10 18:52:59;;;;;;;42.10;18.37;;;;;1.20;100597.00;;;;9760776;30;20209;-75
2022/12/10 18:58:01;;;;;;;36.03;16.30;;;;;1.20;100601.00;;;;9760902;30;20710;-76
2022/12/10 19:03:08;;;;;;;41.93;15.77;;;;;1.30;100598.00;;;;9760817;30;20217;-75
2022/12/10 19:08:12;;;;;;;32.93;14.17;;;;;1.30;100591.00;;;;9744916;30;20260;-75
2022/12/10 19:13:14;;;;;;;29.83;13.03;;;;;1.30;100581.00;;;;9761395;30;20658;-75
2022/12/10 19:18:16;;;;;;;39.50;14.53;;;;;1.30;100591.00;;;;9762835;30;20214;-75
2022/12/10 19:23:19;;;;;;;34.37;14.43;;;;;1.30;100590.00;;;;9748408;30;20252;-75
2022/12/10 19:28:20;;;;;;;30.00;12.87;;;;;1.30;100586.00;;;;9781372;30;20230;-75
2022/12/10 19:33:22;;;;;;;29.87;13.53;;;;;1.30;100588.00;;;;9753711;30;20289;-75
2022/12/10 19:38:24;;;;;;;37.43;15.30;;;;;1.30;100581.00;;;;9767969;30;20214;-75
2022/12/10 19:43:26;;;;;;;31.20;14.90;;;;;1.30;100589.00;;;;9738906;30;20190;-75
2022/12/10 19:48:28;;;;;;;35.17;15.77;;;;;1.30;100588.00;;;;9748703;30;20293;-75
2022/12/10 19:53:37;;;;;;;32.90;14.00;;;;;1.40;100579.00;;;;9774542;30;20692;-75
2022/12/10 19:58:39;;;;;;;31.17;14.47;;;;;1.40;100594.00;;;;9716916;30;20194;-75
2022/12/10 20:03:41;;;;;;;24.67;12.30;;;;;1.40;100587.00;;;;9761797;30;20264;-76
2022/12/10 20:08:44;;;;;;;27.80;12.20;;;;;1.40;100587.00;;;;9736642;30;20208;-75
2022/12/10 20:13:46;;;;;;;28.13;12.47;;;;;1.40;100598.00;;;;9751842;30;20563;-76
2022/12/10 20:18:49;;;;;;;33.90;12.80;;;;;1.40;100596.00;;;;9751476;30;20210;-75
2022/12/10 20:23:51;;;;;;;30.53;14.20;;;;;1.40;100601.00;;;;9765222;30;20205;-76
2022/12/10 20:28:53;;;;;;;31.20;11.43;;;;;1.40;100595.00;;;;9765538;30;20465;-75
2022/12/10 20:33:55;;;;;;;26.40;12.00;;;;;1.40;100598.00;;;;9763315;30;20205;-75
2022/12/10 20:38:57;;;;;;;30.90;14.13;;;;;1.50;100601.00;;;;9765332;30;20206;-75
2022/12/10 20:43:59;;;;;;;26.80;12.53;;;;;1.50;100601.00;;;;9765463;30;20202;-76
2022/12/10 20:49:01;;;;;;;31.13;14.47;;;;;1.50;100589.00;;;;9747249;30;20625;-75
2022/12/10 20:54:03;;;;;;;25.90;10.97;;;;;1.50;100596.00;;;;9768260;30;20575;-76
2022/12/10 20:59:06;;;;;;;27.10;13.60;;;;;1.50;100600.00;;;;9736555;30;20626;-75
2022/12/10 21:04:08;;;;;;;27.20;12.10;;;;;1.40;100589.00;;;;9793912;30;20201;-76
2022/12/10 21:09:11;;;;;;;27.37;12.50;;;;;1.50;100588.00;;;;9749998;30;20276;-76
2022/12/10 21:14:13;;;;;;;18.47;8.00;;;;;1.50;100582.00;;;;9750910;30;20221;-76
2022/12/10 21:19:35;;;;;;;23.37;10.93;;;;;1.40;100577.00;;;;9737554;30;20621;-76
2022/12/10 21:24:37;;;;;;;28.10;11.10;;;;;1.50;100579.00;;;;9762664;30;20633;-75
2022/12/10 21:29:39;;;;;;;25.17;11.10;;;;;1.40;100590.00;;;;9763636;30;20237;-75
2022/12/10 21:34:41;;;;;;;29.53;13.37;;;;;1.40;100590.00;;;;9763296;30;20221;-76
2022/12/10 21:39:43;;;;;;;29.17;11.73;;;;;1.40;100589.00;;;;9762434;30;20260;-75
2022/12/10 21:44:45;;;;;;;31.13;12.43;;;;;1.40;100599.00;;;;9762019;30;20323;-76
2022/12/10 21:49:47;;;;;;;23.93;11.00;;;;;1.40;100595.00;;;;9750316;30;20217;-75
2022/12/10 21:54:49;;;;;;;26.37;11.17;;;;;1.40;100582.00;;;;9761855;30;20756;-75
2022/12/10 21:59:51;;;;;;;24.90;10.60;;;;;1.30;100570.00;;;;9738396;30;20566;-75
2022/12/10 22:04:52;;;;;;;28.63;11.57;;;;;1.30;100572.00;;;;9747111;30;20214;-75
2022/12/10 22:09:54;;;;;;;31.03;11.57;;;;;1.30;100569.00;;;;9745024;30;20205;-75
2022/12/10 22:14:57;;;;;;;30.50;12.90;;;;;1.30;100567.00;;;;9762073;30;20225;-75
2022/12/10 22:19:59;;;;;;;22.30;10.03;;;;;1.30;100571.00;;;;9770302;30;20214;-75
2022/12/10 22:25:02;;;;;;;23.10;10.87;;;;;1.30;100568.00;;;;9734390;30;20199;-75
2022/12/10 22:30:04;;;;;;;26.50;11.57;;;;;1.30;100568.00;;;;9743598;30;20238;-75
2022/12/10 22:35:07;;;;;;;29.30;12.13;;;;;1.20;100574.00;;;;9746892;30;20225;-75
2022/12/10 22:40:11;;;;;;;20.33;9.70;;;;;1.20;100572.00;;;;9727084;30;20209;-75
2022/12/10 22:45:13;;;;;;;22.90;9.93;;;;;1.20;100569.00;;;;9747008;30;20202;-75
2022/12/10 22:50:15;;;;;;;23.27;10.93;;;;;1.20;100571.00;;;;9775366;30;20229;-75
2022/12/10 22:55:17;;;;;;;28.30;11.10;;;;;1.20;100563.00;;;;9749601;30;20221;-75
2022/12/10 23:00:20;;;;;;;24.87;11.63;;;;;1.20;100564.00;;;;9758452;30;20197;-75
2022/12/10 23:05:22;;;;;;;21.83;10.73;;;;;1.20;100575.00;;;;9740578;30;20197;-75
2022/12/10 23:10:24;;;;;;;24.73;11.17;;;;;1.20;100571.00;;;;9745719;30;20295;-75
2022/12/10 23:15:26;;;;;;;25.00;11.47;;;;;1.20;100573.00;;;;9771563;30;20213;-75
2022/12/10 23:20:30;;;;;;;25.20;11.50;;;;;1.20;100588.00;;;;9760818;30;20225;-75
2022/12/10 23:25:32;;;;;;;27.30;12.03;;;;;1.20;100579.00;;;;9760257;30;20201;-75
2022/12/10 23:30:34;;;;;;;26.63;10.87;;;;;1.20;100583.00;;;;9744710;30;20241;-75
2022/12/10 23:35:41;;;;;;;24.67;10.63;;;;;1.30;100590.00;;;;9760566;30;20225;-75
2022/12/10 23:40:43;;;;;;;23.63;10.47;;;;;1.30;100587.00;;;;9760225;30;20202;-75
2022/12/10 23:45:45;;;;;;;27.97;12.23;;;;;1.30;100580.00;;;;9745521;30;20587;-75
2022/12/10 23:50:47;;;;;;;23.13;10.43;;;;;1.30;100574.00;;;;9741672;30;20209;-75
2022/12/10 23:55:49;;;;;;;25.00;10.27;;;;;1.30;100578.00;;;;9757711;30;20213;-75
